Tumbarumba, New South Wales

10:34 AM AEST on September 25, 2016 (GMT +1000)
Bago Forest Road | | Change Station

Elev 2425 ft 35.70 °S, 148.06 °E | Updated 14 seconds ago

Mostly Cloudy
Mostly Cloudy
51.8 °F
Feels Like 51.8 °F
N
0.0
Wind Variable Wind from South
Gusts 0.0 mph

Today
High -- | Low -- °F
--% Chance of Precip.
Yesterday
High -- | Low -- °F
Precip. -- in
Pressure 29.80 in
Visibility 6.2 miles
Clouds Scattered Clouds 1600 ft
Scattered Clouds 2000 ft
Mostly Cloudy 4000 ft
Dew Point 44 °F
Humidity 73%
Rainfall 0.07 in
Snow Depth Not available.
5:53 AM 6:06 PM
Waning Crescent, 33% visible
SPECI YMAY 250003Z AUTO 25007KT 9999 // SCT016 SCT020 BKN040 15/11 Q1009
Pressure 29.80 in
Visibility 6.2 miles
Clouds Scattered Clouds 1600 ft
Scattered Clouds 2000 ft
Mostly Cloudy 4000 ft
Dew Point 44 °F
Humidity 73%
Rainfall 0.07 in
Snow Depth Not available.
5:53 AM 6:06 PM
Waning Crescent, 33% visible
SPECI YMAY 250003Z AUTO 25007KT 9999 // SCT016 SCT020 BKN040 15/11 Q1009

10-Day Weather Forecast

Almanac

Astronomy

Sep. 25, 2016 Rise Set
Actual Time
Civil Twilight
Nautical Twilight
Astronomical Twilight
Moon
Length of Visible Light
Length of Day
Tomorrow will be .
, % of the Moon is Illuminated

Today's Extremes

Country Highs Country Lows

Community

WunderPhotos

Upload Photos

1,941,501 photos uploaded!

WunderBlog® & News

Nearby

Air Quality

  Air Quality AQ Index Pollutant
Not available.

Snow Depth

Station Depth Elevation

Earthquake Activity

City Distance Mag. Time & Date
Minimum magnitude displayed is 2.5.

Coastal Water Temperatures

Place Temperature

Stations

Nearby Weather Stations

Station Location Temp. Windchill Dew Point Humidity Wind Precip. Elev Updated Type